Terminal Aerodrome Forecast
Issued by NWS Grand Forks, ND

Home | Current Version | Previous Version | Graphics & Text | Print | Product List | Glossary On
Versions: 1 2 3 4 5 6 7 8 9 10 11 12 13 14 15 16
628
FTUS43 KFGF 291035 AAA
TAFFAR
TAF AMD
KFAR 291035Z 2911/3006 16007KT P6SM SCT150
     FM291200 VRB06KT P6SM BKN017
     FM291400 32009KT P6SM SCT017
     FM291900 34011KT P6SM SCT200=

USA.gov is the U.S. government's official web portal to all federal, state and local government web resources and services.